createdAt,value
2023-05-19T00:00:19.498Z,15.4527
2023-05-19T00:01:31.397Z,15.2866
2023-05-19T00:02:43.163Z,15.2139
2023-05-19T00:03:56.562Z,15.2091
2023-05-19T00:04:58.483Z,15.4406
2023-05-19T00:06:01.036Z,15.0688
2023-05-19T00:07:03.067Z,15.2490
2023-05-19T00:08:04.392Z,15.4453
2023-05-19T00:09:08.015Z,15.1716
2023-05-19T00:10:09.208Z,14.8992
2023-05-19T00:11:21.224Z,14.8892
2023-05-19T00:12:23.506Z,14.7470
2023-05-19T00:13:31.032Z,14.9940
2023-05-19T00:14:34.014Z,14.5675
2023-05-19T00:15:36.516Z,14.6910
2023-05-19T00:16:37.625Z,15.0181
2023-05-19T00:17:49.564Z,15.1568
2023-05-19T00:19:01.517Z,15.2524
2023-05-19T00:20:13.785Z,15.1830
2023-05-19T00:21:16.756Z,14.9914
2023-05-19T00:22:18.094Z,14.6148
2023-05-19T00:23:30.028Z,14.6500
2023-05-19T00:24:33.668Z,14.9566
2023-05-19T00:25:34.682Z,14.9306
2023-05-19T00:26:46.779Z,15.0174
2023-05-19T00:27:49.488Z,15.0781
2023-05-19T00:28:51.405Z,14.8205
2023-05-19T00:29:54.512Z,15.0848
2023-05-19T00:30:56.416Z,15.2384
2023-05-19T00:32:00.194Z,15.2591
2023-05-19T00:33:00.753Z,15.4413
2023-05-19T00:34:12.570Z,15.3683
2023-05-19T00:35:24.620Z,15.3020
2023-05-19T00:36:36.526Z,15.3955
2023-05-19T00:37:43.606Z,15.3659
2023-05-19T00:38:55.565Z,15.4591
2023-05-19T00:40:07.455Z,15.3645
2023-05-19T00:41:19.456Z,14.8118
2023-05-19T00:42:31.281Z,14.8636
2023-05-19T00:43:43.262Z,15.0147
2023-05-19T00:44:54.336Z,14.9466
2023-05-19T00:46:02.331Z,14.8018
2023-05-19T00:47:01.257Z,14.8619
2023-05-19T00:48:06.987Z,15.0508
2023-05-19T00:49:19.681Z,15.1215
2023-05-19T00:50:21.216Z,15.1189
2023-05-19T00:51:33.290Z,15.0478
2023-05-19T00:52:45.477Z,14.8059
2023-05-19T00:53:47.459Z,14.7457
2023-05-19T00:55:00.498Z,14.4582
2023-05-19T00:56:01.850Z,14.3171
2023-05-19T00:57:03.962Z,14.7030
2023-05-19T00:58:17.049Z,15.0842
2023-05-19T00:59:19.259Z,15.0935
2023-05-19T01:00:20.652Z,15.0207
2023-05-19T01:01:34.056Z,15.0275
2023-05-19T01:02:35.213Z,14.3919
2023-05-19T01:03:37.434Z,14.5187
2023-05-19T01:04:39.785Z,14.9313
2023-05-19T01:05:42.066Z,14.9693
2023-05-19T01:06:55.104Z,14.9165
2023-05-19T01:07:57.167Z,15.1002
2023-05-19T01:08:59.477Z,15.1396
2023-05-19T01:10:00.998Z,15.1863
2023-05-19T01:11:04.358Z,15.0835
2023-05-19T01:12:11.677Z,14.8138
2023-05-19T01:13:14.673Z,14.8805
2023-05-19T01:14:16.126Z,15.0381
2023-05-19T01:15:17.371Z,15.0641
2023-05-19T01:16:29.505Z,15.1023
2023-05-19T01:17:31.635Z,15.1789
2023-05-19T01:18:44.590Z,15.1130
2023-05-19T01:19:46.038Z,15.0815
2023-05-19T01:20:48.219Z,14.9787
2023-05-19T01:21:50.663Z,14.6970
2023-05-19T01:22:52.817Z,14.7050
2023-05-19T01:24:05.784Z,14.7066
2023-05-19T01:25:07.208Z,14.8365
2023-05-19T01:26:20.084Z,14.8209
2023-05-19T01:27:26.313Z,14.6642
2023-05-19T01:28:29.870Z,14.1716
2023-05-19T01:29:32.071Z,14.5434
2023-05-19T01:30:34.691Z,14.7283
2023-05-19T01:31:35.771Z,14.6642
2023-05-19T01:32:37.893Z,14.3198
2023-05-19T01:33:49.821Z,14.5506
2023-05-19T01:34:52.156Z,14.6242
2023-05-19T01:36:04.369Z,14.5303
2023-05-19T01:37:07.867Z,14.6442
2023-05-19T01:38:08.761Z,14.7177
2023-05-19T01:39:20.881Z,14.7327
2023-05-19T01:40:24.165Z,14.8458
2023-05-19T01:41:26.440Z,14.7510
2023-05-19T01:42:27.838Z,14.7210
2023-05-19T01:43:31.779Z,14.6642
2023-05-19T01:44:33.570Z,14.6375
2023-05-19T01:45:34.814Z,14.7230
2023-05-19T01:46:38.164Z,14.8098
2023-05-19T01:47:40.586Z,14.6389
2023-05-19T01:48:41.676Z,14.4393
2023-05-19T01:49:53.767Z,14.6040
2023-05-19T01:50:55.973Z,14.7070
2023-05-19T01:52:07.922Z,14.7285
2023-05-19T01:53:19.968Z,14.6938
2023-05-19T01:54:23.062Z,14.7490
2023-05-19T01:55:25.648Z,14.5995
2023-05-19T01:56:26.824Z,14.3805
2023-05-19T01:57:29.163Z,14.4820
2023-05-19T01:58:41.135Z,14.4433
2023-05-19T01:59:53.190Z,14.4962
2023-05-19T02:00:55.494Z,14.6028
2023-05-19T02:01:57.719Z,14.6776
2023-05-19T02:03:00.145Z,14.6869
2023-05-19T02:04:02.657Z,14.7237
2023-05-19T02:05:04.971Z,14.6002
2023-05-19T02:06:07.088Z,14.3552
2023-05-19T02:07:09.496Z,14.4553
2023-05-19T02:08:11.705Z,14.5100
2023-05-19T02:09:23.699Z,14.6542
2023-05-19T02:10:35.685Z,14.7440
2023-05-19T02:11:38.010Z,14.6442
2023-05-19T02:12:40.264Z,14.5888
2023-05-19T02:13:52.161Z,14.6596
2023-05-19T02:15:04.095Z,14.7434
2023-05-19T02:16:15.988Z,14.6323
2023-05-19T02:17:27.968Z,14.6938
2023-05-19T02:18:39.871Z,14.6724
2023-05-19T02:19:51.762Z,14.5138
2023-05-19T02:21:04.502Z,14.5982
2023-05-19T02:22:06.071Z,14.3779
2023-05-19T02:23:19.330Z,14.4919
2023-05-19T02:24:20.389Z,14.5521
2023-05-19T02:25:22.613Z,14.4827
2023-05-19T02:26:35.602Z,14.3050
2023-05-19T02:27:37.958Z,14.3585
2023-05-19T02:28:40.504Z,14.5314
2023-05-19T02:29:42.621Z,14.6883
2023-05-19T02:30:45.098Z,14.7070
2023-05-19T02:31:46.232Z,14.6148
2023-05-19T02:32:59.133Z,14.6051
2023-05-19T02:34:00.477Z,14.4146
2023-05-19T02:35:13.385Z,14.3829
2023-05-19T02:36:14.737Z,14.1916
2023-05-19T02:37:26.807Z,14.1154
2023-05-19T02:38:29.045Z,14.2984
2023-05-19T02:39:41.178Z,14.3808
2023-05-19T02:40:43.348Z,14.1789
2023-05-19T02:41:55.336Z,14.2500
2023-05-19T02:42:58.255Z,14.5227
2023-05-19T02:44:01.115Z,14.4900
2023-05-19T02:45:02.319Z,14.3198
2023-05-19T02:46:14.357Z,14.5207
2023-05-19T02:47:26.403Z,14.6269
2023-05-19T02:48:28.436Z,14.5855
2023-05-19T02:49:41.555Z,14.2521
2023-05-19T02:50:42.645Z,14.3705
2023-05-19T02:51:45.034Z,14.4867
2023-05-19T02:52:56.953Z,14.4796
2023-05-19T02:53:59.772Z,14.4646
2023-05-19T02:55:01.563Z,14.1095
2023-05-19T02:56:13.587Z,13.5557
2023-05-19T02:57:17.106Z,13.6529
2023-05-19T02:58:18.698Z,13.9947
2023-05-19T02:59:20.547Z,14.2577
2023-05-19T03:00:32.703Z,14.2665
2023-05-19T03:01:35.303Z,14.1990
2023-05-19T03:02:37.252Z,14.3518
2023-05-19T03:03:39.582Z,14.3472
2023-05-19T03:04:47.266Z,14.2484
2023-05-19T03:05:49.825Z,14.2357
2023-05-19T03:06:51.371Z,14.3552
2023-05-19T03:07:54.681Z,14.0294
2023-05-19T03:08:55.929Z,14.2043
2023-05-19T03:10:07.929Z,14.3520
2023-05-19T03:11:20.657Z,14.0764
2023-05-19T03:12:22.122Z,14.1743
2023-05-19T03:13:35.347Z,14.5175
2023-05-19T03:14:41.213Z,14.4787
2023-05-19T03:15:54.518Z,14.5597
2023-05-19T03:16:57.322Z,14.4259
2023-05-19T03:18:02.862Z,14.1228
2023-05-19T03:19:05.034Z,14.3405
2023-05-19T03:20:07.354Z,13.6662
2023-05-19T03:21:09.700Z,13.6168
2023-05-19T03:22:11.952Z,13.8932
2023-05-19T03:23:24.056Z,14.0203
2023-05-19T03:24:26.491Z,14.2377
2023-05-19T03:25:28.872Z,14.4006
2023-05-19T03:26:30.873Z,14.3819
2023-05-19T03:27:42.835Z,13.9909
2023-05-19T03:28:56.611Z,14.0550
2023-05-19T03:29:57.080Z,14.2330
2023-05-19T03:31:09.816Z,14.3701
2023-05-19T03:32:11.363Z,14.1716
2023-05-19T03:33:25.364Z,14.2233
2023-05-19T03:34:25.594Z,14.3612
2023-05-19T03:35:37.535Z,14.1351
2023-05-19T03:36:49.558Z,14.1725
2023-05-19T03:37:51.853Z,14.2650
2023-05-19T03:39:04.581Z,14.2414
2023-05-19T03:40:07.564Z,14.3905
2023-05-19T03:41:09.369Z,14.2357
2023-05-19T03:42:15.512Z,14.3144
2023-05-19T03:43:27.595Z,14.2414
2023-05-19T03:44:34.590Z,14.1642
2023-05-19T03:45:46.706Z,14.2628
2023-05-19T03:46:49.017Z,14.2163
2023-05-19T03:47:51.390Z,14.1936
2023-05-19T03:48:53.537Z,14.4032
2023-05-19T03:50:00.689Z,14.3952
2023-05-19T03:51:07.902Z,14.2257
2023-05-19T03:52:11.254Z,14.3438
2023-05-19T03:53:12.577Z,14.1789
2023-05-19T03:54:15.907Z,14.1175
2023-05-19T03:55:18.292Z,14.3418
2023-05-19T03:56:19.474Z,14.3819
2023-05-19T03:57:26.571Z,14.4433
2023-05-19T03:58:38.802Z,14.3108
2023-05-19T03:59:41.922Z,13.9847
2023-05-19T04:00:43.441Z,13.8331
2023-05-19T04:01:45.815Z,14.1809
2023-05-19T04:02:48.016Z,14.2991
2023-05-19T04:03:50.303Z,14.2737
2023-05-19T04:04:52.801Z,14.3285
2023-05-19T04:05:54.889Z,14.3311
2023-05-19T04:07:07.375Z,13.5648
2023-05-19T04:08:10.500Z,13.2650
2023-05-19T04:09:11.525Z,13.5274
2023-05-19T04:10:24.754Z,13.8905
2023-05-19T04:11:25.849Z,14.1569
2023-05-19T04:12:28.136Z,14.1956
2023-05-19T04:13:40.112Z,14.1159
2023-05-19T04:14:42.453Z,14.2397
2023-05-19T04:15:46.091Z,14.0094
2023-05-19T04:16:47.950Z,13.9686
2023-05-19T04:17:50.465Z,13.4332
2023-05-19T04:18:51.861Z,13.6295
2023-05-19T04:19:54.951Z,14.0441
2023-05-19T04:20:57.674Z,14.1823
2023-05-19T04:21:58.813Z,14.1375
2023-05-19T04:23:01.119Z,14.2230
2023-05-19T04:24:04.869Z,14.2710
2023-05-19T04:25:05.838Z,14.0734
2023-05-19T04:26:08.243Z,14.0641
2023-05-19T04:27:10.528Z,14.2063
2023-05-19T04:28:13.914Z,14.3986
2023-05-19T04:29:16.289Z,14.3892
2023-05-19T04:30:18.666Z,14.0694
2023-05-19T04:31:20.321Z,13.8231
2023-05-19T04:32:23.141Z,14.0541
2023-05-19T04:33:25.796Z,14.3665
2023-05-19T04:34:31.647Z,14.5120
2023-05-19T04:35:38.962Z,14.5761
2023-05-19T04:36:41.177Z,14.6315
2023-05-19T04:37:43.522Z,14.5521
2023-05-19T04:38:45.813Z,14.5187
2023-05-19T04:39:48.581Z,14.4199
2023-05-19T04:40:51.797Z,14.3011
2023-05-19T04:41:54.099Z,14.5120
2023-05-19T04:42:55.281Z,14.4139
2023-05-19T04:43:58.749Z,14.5695
2023-05-19T04:45:01.003Z,14.5922
2023-05-19T04:46:02.292Z,14.5868
2023-05-19T04:47:06.376Z,14.5247
2023-05-19T04:48:16.962Z,14.6536
2023-05-19T04:49:18.994Z,14.6422
2023-05-19T04:50:21.316Z,14.5855
2023-05-19T04:51:23.701Z,14.6108
2023-05-19T04:52:27.473Z,14.5160
2023-05-19T04:53:28.432Z,14.3365
2023-05-19T04:54:31.025Z,14.6148
2023-05-19T04:55:33.026Z,14.5167
2023-05-19T04:56:35.138Z,14.1589
2023-05-19T04:57:37.390Z,13.8318
2023-05-19T04:58:49.059Z,14.1309
2023-05-19T05:00:01.248Z,14.5303
2023-05-19T05:01:04.513Z,14.6269
2023-05-19T05:02:05.759Z,14.5888
2023-05-19T05:03:18.576Z,14.1597
2023-05-19T05:04:21.005Z,14.2998
2023-05-19T05:05:22.424Z,13.8859
2023-05-19T05:06:24.697Z,13.8792
2023-05-19T05:07:36.523Z,14.2211
2023-05-19T05:08:48.482Z,14.2393
2023-05-19T05:10:00.751Z,14.5506
2023-05-19T05:11:03.908Z,14.5501
2023-05-19T05:12:05.946Z,14.2490
2023-05-19T05:13:07.955Z,14.3845
2023-05-19T05:14:10.683Z,14.2751
2023-05-19T05:15:12.958Z,14.4620
2023-05-19T05:16:15.034Z,14.5140
2023-05-19T05:17:16.865Z,14.2350
2023-05-19T05:18:19.021Z,14.4426
2023-05-19T05:19:31.434Z,14.4962
2023-05-19T05:20:34.416Z,14.3939
2023-05-19T05:21:36.090Z,14.0668
2023-05-19T05:22:38.143Z,13.8598
2023-05-19T05:23:51.043Z,14.0219
2023-05-19T05:24:52.216Z,14.1035
2023-05-19T05:26:03.967Z,14.0240
2023-05-19T05:27:15.854Z,14.2035
2023-05-19T05:28:28.007Z,14.4604
2023-05-19T05:29:40.838Z,14.4711
2023-05-19T05:30:43.192Z,14.3939
2023-05-19T05:31:44.628Z,14.6569
2023-05-19T05:32:56.480Z,14.6911
2023-05-19T05:34:08.186Z,14.6644
2023-05-19T05:35:20.273Z,14.4871
2023-05-19T05:36:32.054Z,14.5458
2023-05-19T05:37:43.942Z,14.6366
2023-05-19T05:38:56.199Z,14.6131
2023-05-19T05:40:07.804Z,14.3525
2023-05-19T05:41:19.966Z,14.5661
2023-05-19T05:42:32.773Z,14.6484
2023-05-19T05:43:34.744Z,14.6869
2023-05-19T05:44:41.138Z,14.8111
2023-05-19T05:45:53.132Z,14.4390
2023-05-19T05:47:05.025Z,14.5437
2023-05-19T05:48:08.590Z,14.7978
2023-05-19T05:49:14.677Z,14.8679
2023-05-19T05:50:26.369Z,14.8609
2023-05-19T05:51:39.418Z,14.9149
2023-05-19T05:52:40.649Z,14.7644
2023-05-19T05:53:43.205Z,14.8271
2023-05-19T05:54:55.672Z,14.3621
2023-05-19T05:55:57.226Z,14.2076
2023-05-19T05:57:10.935Z,14.5287
2023-05-19T05:58:12.564Z,14.4954
2023-05-19T05:59:14.051Z,14.6776
2023-05-19T06:00:27.155Z,14.9154
2023-05-19T06:01:28.109Z,14.9099
2023-05-19T06:02:40.154Z,14.7920
2023-05-19T06:03:53.182Z,14.3626
2023-05-19T06:04:54.340Z,14.4106
2023-05-19T06:06:06.502Z,14.3375
2023-05-19T06:07:18.271Z,14.7199
2023-05-19T06:08:30.114Z,14.2980
2023-05-19T06:09:43.165Z,14.4956
2023-05-19T06:10:47.082Z,14.6362
2023-05-19T06:11:47.835Z,14.8612
2023-05-19T06:12:49.236Z,14.9032
2023-05-19T06:13:51.477Z,14.5741
2023-05-19T06:15:04.425Z,14.5677
2023-05-19T06:16:05.702Z,14.8752
2023-05-19T06:17:18.635Z,14.7947
2023-05-19T06:18:20.383Z,13.9272
2023-05-19T06:19:24.577Z,13.9606
2023-05-19T06:20:25.532Z,14.4086
2023-05-19T06:21:26.872Z,14.7257
2023-05-19T06:22:38.811Z,14.5939
2023-05-19T06:23:51.134Z,14.5576
2023-05-19T06:24:53.053Z,14.5014
2023-05-19T06:26:05.969Z,14.7883
2023-05-19T06:27:07.422Z,14.6823
2023-05-19T06:28:19.812Z,14.5816
2023-05-19T06:29:26.614Z,14.4199
2023-05-19T06:30:39.465Z,14.0929
2023-05-19T06:31:41.655Z,14.5721
2023-05-19T06:32:43.974Z,14.7884
2023-05-19T06:33:46.377Z,14.4520
2023-05-19T06:34:47.710Z,14.5007
2023-05-19T06:35:59.598Z,14.6606
2023-05-19T06:37:01.851Z,14.3104
2023-05-19T06:38:14.525Z,14.5223
2023-05-19T06:39:16.093Z,14.6616
2023-05-19T06:40:27.998Z,14.7691
2023-05-19T06:41:40.639Z,14.5885
2023-05-19T06:42:42.633Z,14.2156
2023-05-19T06:43:44.700Z,14.0815
2023-05-19T06:44:57.435Z,14.0919
2023-05-19T06:45:59.582Z,14.0000
2023-05-19T06:47:02.496Z,13.6776
2023-05-19T06:48:03.576Z,14.1636
2023-05-19T06:49:25.177Z,14.2243
2023-05-19T06:50:32.312Z,14.2744
2023-05-19T06:51:29.859Z,14.2557
2023-05-19T06:52:41.573Z,14.4689
2023-05-19T06:53:54.601Z,14.6671
2023-05-19T06:54:57.026Z,14.5594
2023-05-19T06:55:59.835Z,14.3371
2023-05-19T06:57:00.513Z,14.3405
2023-05-19T06:58:14.285Z,14.2580
2023-05-19T06:59:14.834Z,14.1983
2023-05-19T07:00:26.836Z,14.5084
2023-05-19T07:01:39.827Z,14.7584
2023-05-19T07:02:42.014Z,14.6936
2023-05-19T07:03:43.498Z,14.6849
2023-05-19T07:04:55.258Z,14.7359
2023-05-19T07:05:57.599Z,14.4326
2023-05-19T07:07:09.444Z,14.3760
2023-05-19T07:08:22.457Z,14.5122
2023-05-19T07:09:23.744Z,14.7484
2023-05-19T07:10:35.874Z,14.7659
2023-05-19T07:11:47.608Z,14.4486
2023-05-19T07:12:59.693Z,14.4267
2023-05-19T07:14:12.540Z,14.4032
2023-05-19T07:15:13.773Z,14.5708
2023-05-19T07:16:25.794Z,14.6708
2023-05-19T07:17:37.622Z,14.9357
2023-05-19T07:18:51.186Z,14.6975
2023-05-19T07:19:52.446Z,14.5861
2023-05-19T07:20:55.187Z,14.1629
2023-05-19T07:21:56.484Z,14.4246
2023-05-19T07:23:08.576Z,14.6441
2023-05-19T07:24:20.358Z,14.5186
2023-05-19T07:25:33.550Z,14.7546
2023-05-19T07:26:34.807Z,14.8445
2023-05-19T07:27:47.529Z,14.7306
2023-05-19T07:28:49.902Z,14.3986
2023-05-19T07:29:52.323Z,14.1462
2023-05-19T07:30:53.594Z,14.0921
2023-05-19T07:32:06.784Z,14.3365
2023-05-19T07:33:08.190Z,14.2443
2023-05-19T07:34:20.637Z,14.6174
2023-05-19T07:35:22.450Z,14.7984
2023-05-19T07:36:25.629Z,14.4193
2023-05-19T07:37:27.821Z,14.6716
2023-05-19T07:38:29.127Z,14.4700
2023-05-19T07:39:41.120Z,14.5613
2023-05-19T07:40:53.118Z,14.9709
2023-05-19T07:42:04.800Z,14.9661
2023-05-19T07:43:16.899Z,14.2094
2023-05-19T07:44:29.561Z,14.2216
2023-05-19T07:45:33.117Z,13.8552
2023-05-19T07:46:34.306Z,13.8825
2023-05-19T07:47:35.711Z,14.0588
2023-05-19T07:48:49.688Z,14.2467
2023-05-19T07:49:51.994Z,14.4493
2023-05-19T07:50:53.361Z,14.8812
2023-05-19T07:51:54.966Z,15.0554
2023-05-19T07:53:07.706Z,15.2791
2023-05-19T07:54:09.938Z,15.0101
2023-05-19T07:55:12.018Z,15.0207
2023-05-19T07:56:13.680Z,14.4333
2023-05-19T07:57:16.457Z,14.6502
2023-05-19T07:58:19.156Z,14.6749
2023-05-19T07:59:20.546Z,14.3859
2023-05-19T08:00:33.256Z,14.3990
2023-05-19T08:01:35.787Z,14.8485
2023-05-19T08:02:38.118Z,14.9139
2023-05-19T08:03:39.532Z,14.6676
2023-05-19T08:04:42.873Z,14.6335
2023-05-19T08:05:45.551Z,14.3472
2023-05-19T08:06:52.015Z,14.4059
2023-05-19T08:07:53.601Z,14.9339
2023-05-19T08:09:05.518Z,15.1840
2023-05-19T08:10:17.466Z,14.4780
2023-05-19T08:11:29.418Z,14.1848
2023-05-19T08:12:42.206Z,14.3194
2023-05-19T08:13:43.982Z,14.5621
2023-05-19T08:14:55.613Z,14.5581
2023-05-19T08:16:07.778Z,14.4540
2023-05-19T08:17:20.189Z,14.5992
2023-05-19T08:18:21.924Z,14.6295
2023-05-19T08:19:24.897Z,14.4987
2023-05-19T08:20:26.781Z,14.6796
2023-05-19T08:21:39.385Z,14.3098
2023-05-19T08:22:40.695Z,14.0988
2023-05-19T08:23:52.684Z,14.3055
2023-05-19T08:25:04.554Z,14.5709
2023-05-19T08:26:17.613Z,14.6959
2023-05-19T08:27:25.117Z,14.2717
2023-05-19T08:28:26.824Z,14.5594
2023-05-19T08:29:28.289Z,14.6709
2023-05-19T08:30:40.297Z,14.8353
2023-05-19T08:31:52.229Z,14.7755
2023-05-19T08:33:04.093Z,14.7888
2023-05-19T08:34:17.087Z,14.7386
2023-05-19T08:35:23.106Z,13.7804
2023-05-19T08:36:36.184Z,14.2179
2023-05-19T08:37:38.395Z,14.3805
2023-05-19T08:38:39.798Z,14.4419
2023-05-19T08:39:52.699Z,14.5148
2023-05-19T08:40:54.049Z,14.4473
2023-05-19T08:42:05.910Z,14.5047
2023-05-19T08:43:17.862Z,14.3322
2023-05-19T08:44:30.948Z,13.8462
2023-05-19T08:45:33.260Z,13.8712
2023-05-19T08:46:34.617Z,14.2223
2023-05-19T08:47:46.477Z,14.4080
2023-05-19T08:48:59.704Z,14.6254
2023-05-19T08:50:02.022Z,14.4994
2023-05-19T08:51:12.449Z,14.4359
2023-05-19T08:52:19.559Z,14.4373
2023-05-19T08:53:32.496Z,14.4760
2023-05-19T08:54:29.734Z,14.5761
2023-05-19T08:55:31.994Z,14.0661
2023-05-19T08:56:35.052Z,14.0795
2023-05-19T08:57:36.487Z,14.0901
2023-05-19T08:58:48.754Z,14.1608
2023-05-19T08:59:50.512Z,14.3999
2023-05-19T09:00:53.999Z,14.7404
2023-05-19T09:01:56.109Z,14.7136
2023-05-19T09:03:06.066Z,14.9620
2023-05-19T09:04:05.876Z,15.0982
2023-05-19T09:05:09.167Z,15.3038
2023-05-19T09:06:09.551Z,15.3292
2023-05-19T09:07:21.368Z,15.1664
2023-05-19T09:08:33.550Z,14.9667
2023-05-19T09:09:46.007Z,14.9907
2023-05-19T09:10:48.735Z,15.1015
2023-05-19T09:11:50.928Z,15.2397
2023-05-19T09:12:52.112Z,15.5434
2023-05-19T09:14:03.987Z,15.5130
2023-05-19T09:17:37.038Z,15.1028
2023-05-19T09:17:37.038Z,15.6043
2023-05-19T09:18:37.368Z,15.0534
2023-05-19T09:19:49.343Z,14.9271
2023-05-19T09:21:01.215Z,14.9405
2023-05-19T09:22:04.046Z,14.4613
2023-05-19T09:23:05.973Z,13.8044
2023-05-19T09:24:18.865Z,14.2200
2023-05-19T09:25:20.276Z,14.5107
2023-05-19T09:26:32.169Z,14.7103
2023-05-19T09:27:44.026Z,14.6526
2023-05-19T09:28:57.361Z,14.7108
2023-05-19T09:29:58.832Z,14.9880
2023-05-19T09:31:01.389Z,15.2504
2023-05-19T09:32:04.212Z,15.0801
2023-05-19T09:33:05.345Z,14.9867
2023-05-19T09:34:17.241Z,14.6430
2023-05-19T09:35:20.612Z,14.0634
2023-05-19T09:36:26.747Z,14.5294
2023-05-19T09:37:39.695Z,14.7797
2023-05-19T09:38:41.289Z,15.0074
2023-05-19T09:39:44.910Z,14.8031
2023-05-19T09:40:46.364Z,14.7203
2023-05-19T09:41:48.909Z,14.9520
2023-05-19T09:42:50.320Z,15.3919
2023-05-19T09:43:52.856Z,15.5962
2023-05-19T09:44:56.398Z,15.3772
2023-05-19T09:45:59.465Z,15.1709
2023-05-19T09:47:00.612Z,15.2664
2023-05-19T09:48:08.020Z,15.6175
2023-05-19T09:49:09.358Z,15.6863
2023-05-19T09:50:22.130Z,15.4922
2023-05-19T09:51:24.461Z,15.6182
2023-05-19T09:52:25.822Z,15.6790
2023-05-19T09:53:28.240Z,15.8352
2023-05-19T09:54:40.605Z,15.8244
2023-05-19T09:55:42.446Z,15.4226
2023-05-19T09:56:54.746Z,15.8254
2023-05-19T09:57:57.062Z,15.6436
2023-05-19T09:58:58.986Z,15.6536
2023-05-19T10:00:12.176Z,15.5285
2023-05-19T10:01:13.263Z,15.8178
2023-05-19T10:02:25.073Z,15.8334
2023-05-19T10:03:37.852Z,15.6871
2023-05-19T10:04:39.545Z,15.7791
2023-05-19T10:05:51.302Z,15.9974
2023-05-19T10:07:04.239Z,15.4601
2023-05-19T10:08:05.528Z,15.6362
2023-05-19T10:09:17.414Z,15.8073
2023-05-19T10:10:29.646Z,16.1026
2023-05-19T10:11:41.338Z,16.2404
2023-05-19T10:12:53.490Z,15.6759
2023-05-19T10:14:05.164Z,15.6257
2023-05-19T10:15:17.668Z,15.5472
2023-05-19T10:16:20.311Z,15.0187
2023-05-19T10:17:21.822Z,14.9153
2023-05-19T10:18:33.882Z,15.1926
2023-05-19T10:19:46.080Z,15.6166
2023-05-19T10:20:48.153Z,15.8472
2023-05-19T10:22:00.070Z,15.9354
2023-05-19T10:23:12.053Z,15.7234
2023-05-19T10:24:23.745Z,15.9392
2023-05-19T10:25:36.248Z,15.9322
2023-05-19T10:26:38.120Z,16.1316
2023-05-19T10:27:40.349Z,16.3425
2023-05-19T10:28:52.166Z,15.5776
2023-05-19T10:29:55.872Z,15.5888
2023-05-19T10:30:58.020Z,15.6202
2023-05-19T10:31:59.513Z,15.2450
2023-05-19T10:33:01.898Z,15.7137
2023-05-19T10:34:03.937Z,15.8365
2023-05-19T10:35:07.317Z,16.2784
2023-05-19T10:36:09.155Z,16.4553
2023-05-19T10:37:10.911Z,16.5682
2023-05-19T10:38:22.781Z,16.6254
2023-05-19T10:39:35.770Z,16.7248
2023-05-19T10:40:37.058Z,16.3465
2023-05-19T10:41:48.903Z,16.1523
2023-05-19T10:43:00.839Z,16.3018
2023-05-19T10:44:14.579Z,16.3338
2023-05-19T10:45:15.257Z,16.1930
2023-05-19T10:46:28.262Z,15.9632
2023-05-19T10:47:29.401Z,16.1803
2023-05-19T10:48:41.622Z,16.2965
2023-05-19T10:49:53.330Z,16.3034
2023-05-19T10:51:06.562Z,16.4919
2023-05-19T10:52:07.867Z,16.1483
2023-05-19T10:53:20.461Z,16.3899
2023-05-19T10:54:31.235Z,16.5294
2023-05-19T10:55:29.873Z,16.3445
2023-05-19T10:56:36.871Z,16.7885
2023-05-19T10:57:38.334Z,16.4600
2023-05-19T10:58:50.334Z,16.2612
2023-05-19T10:59:52.964Z,16.6182
2023-05-19T11:00:55.747Z,16.7210
2023-05-19T11:01:57.363Z,16.6469
2023-05-19T11:03:10.201Z,16.4636
2023-05-19T11:04:11.716Z,16.2617
2023-05-19T11:05:25.095Z,16.3007
2023-05-19T11:06:25.863Z,16.7698
2023-05-19T11:07:38.682Z,16.9240
2023-05-19T11:08:40.048Z,16.6389
2023-05-19T11:09:52.343Z,16.7189
2023-05-19T11:10:54.294Z,16.7204
2023-05-19T11:12:06.713Z,16.7023
2023-05-19T11:13:09.162Z,16.2077
2023-05-19T11:14:11.303Z,16.5668
2023-05-19T11:15:23.647Z,16.5144
2023-05-19T11:16:25.318Z,16.4767
2023-05-19T11:17:28.167Z,16.5808
2023-05-19T11:18:30.098Z,16.2524
2023-05-19T11:19:43.696Z,16.2185
2023-05-19T11:20:44.849Z,16.2524
2023-05-19T11:21:47.501Z,16.4660
2023-05-19T11:22:48.956Z,16.7998
2023-05-19T11:24:01.014Z,16.8684
2023-05-19T11:25:14.037Z,16.0844
2023-05-19T11:26:19.777Z,16.6015
2023-05-19T11:27:32.938Z,16.2067
2023-05-19T11:28:34.061Z,16.2370
2023-05-19T11:29:46.045Z,16.5357
2023-05-19T11:30:58.373Z,16.5806
2023-05-19T11:32:00.548Z,16.7537
2023-05-19T11:33:03.568Z,16.0348
2023-05-19T11:34:04.903Z,15.8939
2023-05-19T11:35:16.783Z,16.0535
2023-05-19T11:36:28.761Z,16.1143
2023-05-19T11:37:40.704Z,16.3178
2023-05-19T11:38:52.499Z,16.2249
2023-05-19T11:40:04.651Z,15.9926
2023-05-19T11:41:07.874Z,16.2504
2023-05-19T11:42:09.085Z,16.6830
2023-05-19T11:43:11.452Z,16.2477
2023-05-19T11:44:24.596Z,16.0844
2023-05-19T11:45:25.979Z,16.2611
2023-05-19T11:46:38.206Z,15.8089
2023-05-19T11:47:56.487Z,16.1663
2023-05-19T11:48:47.882Z,16.4079
2023-05-19T11:49:50.692Z,16.6102
2023-05-19T11:50:52.832Z,16.4573
2023-05-19T11:51:54.154Z,16.6536
2023-05-19T11:53:06.701Z,16.9427
2023-05-19T11:54:09.592Z,16.9687
2023-05-19T11:55:10.678Z,16.9153
2023-05-19T11:56:23.705Z,16.5133
2023-05-19T11:57:29.804Z,16.8372
2023-05-19T11:58:43.305Z,17.0351
2023-05-19T11:59:44.318Z,16.8886
2023-05-19T12:00:48.225Z,17.0381
2023-05-19T12:01:50.620Z,17.1523
2023-05-19T12:02:55.952Z,16.9887
2023-05-19T12:04:09.329Z,16.9181
2023-05-19T12:05:10.572Z,17.1436
2023-05-19T12:06:13.132Z,17.2197
2023-05-19T12:07:16.121Z,17.3219
2023-05-19T12:08:17.058Z,17.6243
2023-05-19T12:09:30.095Z,17.8260
2023-05-19T12:10:31.303Z,17.9647
2023-05-19T12:11:43.553Z,17.9734
2023-05-19T12:12:45.592Z,17.8739
2023-05-19T12:13:58.547Z,17.5643
2023-05-19T12:15:00.931Z,17.2084
2023-05-19T12:16:02.984Z,17.6610
2023-05-19T12:17:04.474Z,17.5655
2023-05-19T12:18:17.700Z,17.5168
2023-05-19T12:19:18.764Z,17.6623
2023-05-19T12:20:30.691Z,17.8516
2023-05-19T12:21:42.788Z,18.1593
2023-05-19T12:22:45.165Z,18.1022
2023-05-19T12:23:48.328Z,17.9006
2023-05-19T12:24:49.778Z,17.8813
2023-05-19T12:26:02.336Z,18.0402
2023-05-19T12:27:04.838Z,18.1103
2023-05-19T12:28:07.806Z,17.7217
2023-05-19T12:29:08.516Z,17.7351
2023-05-19T12:30:21.574Z,18.0001
2023-05-19T12:31:22.799Z,18.4554
2023-05-19T12:32:34.847Z,18.3878
2023-05-19T12:33:47.409Z,18.3018
2023-05-19T12:34:49.403Z,18.0408
2023-05-19T12:36:01.594Z,18.2869
2023-05-19T12:37:03.983Z,18.6950
2023-05-19T12:38:06.857Z,18.5962
2023-05-19T12:39:08.057Z,18.1677
2023-05-19T12:40:20.731Z,18.3200
2023-05-19T12:41:22.116Z,18.3492
2023-05-19T12:42:35.503Z,17.7357
2023-05-19T12:43:36.570Z,18.0515
2023-05-19T12:44:50.274Z,18.4231
2023-05-19T12:45:51.991Z,18.2611
2023-05-19T12:46:53.035Z,18.6216
2023-05-19T12:48:05.637Z,18.9529
2023-05-19T12:49:07.403Z,18.6129
2023-05-19T12:50:21.269Z,18.4097
2023-05-19T12:51:22.701Z,18.4861
2023-05-19T12:52:24.133Z,18.3346
2023-05-19T12:53:35.856Z,18.0615
2023-05-19T12:54:47.907Z,18.4290
2023-05-19T12:55:59.900Z,18.8461
2023-05-19T12:57:21.128Z,18.8525
2023-05-19T12:58:18.890Z,17.9367
2023-05-19T12:59:27.171Z,17.8519
2023-05-19T13:00:28.689Z,18.2678
2023-05-19T13:01:30.690Z,18.1637
2023-05-19T13:02:33.115Z,18.1269
2023-05-19T13:03:45.071Z,17.9766
2023-05-19T13:04:56.883Z,18.4738
2023-05-19T13:06:08.864Z,18.2917
2023-05-19T13:07:21.484Z,18.2281
2023-05-19T13:08:23.216Z,17.6710
2023-05-19T13:09:36.042Z,17.7261
2023-05-19T13:10:38.214Z,17.7912
2023-05-19T13:11:39.642Z,17.6670
2023-05-19T13:12:52.789Z,17.6989
2023-05-19T13:13:54.053Z,17.7257
2023-05-19T13:15:05.861Z,17.9082
2023-05-19T13:16:18.732Z,17.8559
2023-05-19T13:17:25.790Z,17.7184
2023-05-19T13:18:27.649Z,18.1323
2023-05-19T13:19:39.344Z,18.1240
2023-05-19T13:20:51.335Z,17.8089
2023-05-19T13:22:03.114Z,17.4981